FHA82Y EDDL-LGSM
Flight info
| Callsign | FHA82Y |
|---|---|
| Flight time | 2h 59m |
| Altitude | 37000 |
| Route | DODEN1T/23L DODEN Y853 BOMBI DCT DETEV DCT DINKU DCT BESNI DCT LATLO DCT OBEDI DCT KFT DCT OLEZE DCT TEBLI DCT MEDUX UM867 KOGAT DCT ERANA DCT TSL UN130 MES UL609 URNIL URNIL2A |
| Aircraft | A320/M-SDE3FGHIRWY/LB1 |
Departure
| Time | 2026-05-05 12:45 |
|---|---|
| Airport | Düsseldorf Airport (EDDL) |
Arrival
| Time | 2026-05-05 15:45 |
|---|---|
| Airport | Samos Airport (LGSM) |
| Time | Latitude | Longitude | Altitude | Speed | Heading |
|---|---|---|---|---|---|
| 2026-05-05 11:45 | 51.27600 | 6.75961 | 130 ft | 0 kts | 63° |
| 2026-05-05 12:18 | 51.27599 | 6.75961 | 130 ft | 0 kts | 63° |
| 2026-05-05 12:35 | 51.27600 | 6.75961 | 130 ft | 0 kts | 63° |
| 2026-05-05 12:35 | 51.27605 | 6.75977 | 126 ft | 5 kts | 63° |
| 2026-05-05 12:35 | 51.27622 | 6.76028 | 127 ft | 4 kts | 54° |
| 2026-05-05 12:36 | 51.27653 | 6.76044 | 129 ft | 7 kts | 357° |
| 2026-05-05 12:36 | 51.27728 | 6.76041 | 127 ft | 14 kts | 1° |
| 2026-05-05 12:36 | 51.27830 | 6.76045 | 128 ft | 15 kts | 1° |
| 2026-05-05 12:36 | 51.27940 | 6.76048 | 128 ft | 16 kts | 1° |
| 2026-05-05 12:37 | 51.28051 | 6.76050 | 125 ft | 16 kts | 1° |
| 2026-05-05 12:37 | 51.28116 | 6.76020 | 124 ft | 6 kts | 355° |
| 2026-05-05 12:37 | 51.28151 | 6.76065 | 126 ft | 8 kts | 55° |
| 2026-05-05 12:37 | 51.28200 | 6.76170 | 123 ft | 16 kts | 53° |
| 2026-05-05 12:38 | 51.28283 | 6.76344 | 122 ft | 23 kts | 52° |
| 2026-05-05 12:38 | 51.28383 | 6.76554 | 123 ft | 25 kts | 53° |
| 2026-05-05 12:38 | 51.28486 | 6.76771 | 124 ft | 24 kts | 53° |
| 2026-05-05 12:38 | 51.28587 | 6.76983 | 124 ft | 24 kts | 52° |
| 2026-05-05 12:39 | 51.28686 | 6.77190 | 128 ft | 24 kts | 53° |
| 2026-05-05 12:39 | 51.28787 | 6.77402 | 127 ft | 24 kts | 53° |
| 2026-05-05 12:39 | 51.28890 | 6.77617 | 128 ft | 24 kts | 52° |
| 2026-05-05 12:39 | 51.28997 | 6.77831 | 127 ft | 25 kts | 53° |
| 2026-05-05 12:40 | 51.29097 | 6.78051 | 130 ft | 24 kts | 53° |
| 2026-05-05 12:40 | 51.29189 | 6.78246 | 138 ft | 21 kts | 53° |
| 2026-05-05 12:40 | 51.29269 | 6.78415 | 145 ft | 17 kts | 52° |
| 2026-05-05 12:40 | 51.29340 | 6.78549 | 151 ft | 13 kts | 40° |
| 2026-05-05 12:41 | 51.29411 | 6.78572 | 152 ft | 11 kts | 354° |
| 2026-05-05 12:41 | 51.29490 | 6.78560 | 152 ft | 12 kts | 355° |
| 2026-05-05 12:41 | 51.29538 | 6.78528 | 152 ft | 6 kts | 288° |
| 2026-05-05 12:41 | 51.29526 | 6.78484 | 151 ft | 1 kts | 233° |
| 2026-05-05 12:42 | 51.29525 | 6.78480 | 151 ft | 0 kts | 233° |
| 2026-05-05 12:44 | 51.29433 | 6.78287 | 145 ft | 61 kts | 232° |
| 2026-05-05 12:44 | 51.29018 | 6.77419 | 128 ft | 131 kts | 232° |
| 2026-05-05 12:45 | 51.28356 | 6.76054 | 245 ft | 170 kts | 233° |
| 2026-05-05 12:45 | 51.27631 | 6.74547 | 936 ft | 171 kts | 236° |
| 2026-05-05 12:45 | 51.26915 | 6.73006 | 1546 ft | 178 kts | 234° |
| 2026-05-05 12:45 | 51.26112 | 6.71323 | 1819 ft | 200 kts | 234° |
| 2026-05-05 12:46 | 51.25250 | 6.69450 | 2157 ft | 218 kts | 235° |
| 2026-05-05 12:46 | 51.24329 | 6.67411 | 2572 ft | 235 kts | 234° |
| 2026-05-05 12:46 | 51.23362 | 6.65300 | 3420 ft | 236 kts | 231° |
| 2026-05-05 12:46 | 51.22066 | 6.63744 | 4214 ft | 237 kts | 197° |
| 2026-05-05 12:47 | 51.20426 | 6.63579 | 4990 ft | 239 kts | 175° |
| 2026-05-05 12:47 | 51.18776 | 6.63826 | 5891 ft | 238 kts | 174° |
| 2026-05-05 12:47 | 51.17125 | 6.64111 | 6668 ft | 240 kts | 174° |
| 2026-05-05 12:47 | 51.15494 | 6.64696 | 7422 ft | 243 kts | 156° |
| 2026-05-05 12:48 | 51.14106 | 6.66297 | 8187 ft | 248 kts | 132° |
| 2026-05-05 12:48 | 51.13265 | 6.68653 | 8938 ft | 254 kts | 108° |
| 2026-05-05 12:48 | 51.13082 | 6.71447 | 9602 ft | 266 kts | 91° |
| 2026-05-05 12:48 | 51.13160 | 6.74512 | 9931 ft | 285 kts | 89° |
| 2026-05-05 12:49 | 51.13094 | 6.77752 | 10192 ft | 304 kts | 104° |
| 2026-05-05 12:49 | 51.12549 | 6.81123 | 10393 ft | 325 kts | 107° |
| 2026-05-05 12:49 | 51.11944 | 6.84654 | 10914 ft | 334 kts | 107° |
| 2026-05-05 12:49 | 51.11324 | 6.88244 | 11568 ft | 339 kts | 107° |
| 2026-05-05 12:50 | 51.10696 | 6.91890 | 12241 ft | 343 kts | 107° |
| 2026-05-05 12:50 | 51.10066 | 6.95553 | 12897 ft | 347 kts | 107° |
| 2026-05-05 12:50 | 51.09424 | 6.99286 | 13547 ft | 352 kts | 107° |
| 2026-05-05 12:50 | 51.08775 | 7.03065 | 14122 ft | 356 kts | 107° |
| 2026-05-05 12:51 | 51.08121 | 7.06874 | 14718 ft | 359 kts | 107° |
| 2026-05-05 12:51 | 51.07464 | 7.10713 | 15330 ft | 361 kts | 107° |
| 2026-05-05 12:51 | 51.06799 | 7.14592 | 15946 ft | 364 kts | 107° |
| 2026-05-05 12:51 | 51.06128 | 7.18492 | 16546 ft | 367 kts | 107° |
| 2026-05-05 12:52 | 51.05449 | 7.22419 | 17133 ft | 370 kts | 107° |
| 2026-05-05 12:52 | 51.04759 | 7.26397 | 17713 ft | 373 kts | 107° |
| 2026-05-05 12:52 | 51.04065 | 7.30399 | 18263 ft | 377 kts | 107° |
| 2026-05-05 12:52 | 51.03380 | 7.34402 | 18747 ft | 380 kts | 107° |
| 2026-05-05 12:53 | 51.02691 | 7.38474 | 19248 ft | 382 kts | 107° |
| 2026-05-05 12:53 | 51.02008 | 7.42514 | 19744 ft | 385 kts | 107° |
| 2026-05-05 12:53 | 51.01309 | 7.46638 | 20229 ft | 388 kts | 107° |
| 2026-05-05 12:53 | 51.00601 | 7.50783 | 20711 ft | 390 kts | 107° |
| 2026-05-05 12:54 | 50.99167 | 7.59139 | 21644 ft | 395 kts | 108° |
| 2026-05-05 12:54 | 50.98437 | 7.63369 | 22118 ft | 398 kts | 108° |
| 2026-05-05 12:54 | 50.97616 | 7.67544 | 22558 ft | 398 kts | 115° |
| 2026-05-05 12:55 | 50.96340 | 7.71438 | 22984 ft | 397 kts | 126° |
| 2026-05-05 12:55 | 50.94620 | 7.74857 | 23422 ft | 396 kts | 137° |
| 2026-05-05 12:55 | 50.92522 | 7.77689 | 23788 ft | 396 kts | 148° |
| 2026-05-05 12:55 | 50.90193 | 7.80017 | 24155 ft | 397 kts | 150° |
| 2026-05-05 12:56 | 50.87930 | 7.82236 | 24497 ft | 399 kts | 150° |
| 2026-05-05 12:56 | 50.85563 | 7.84561 | 24856 ft | 401 kts | 150° |
| 2026-05-05 12:56 | 50.83181 | 7.86904 | 25210 ft | 404 kts | 150° |
| 2026-05-05 12:56 | 50.80812 | 7.89233 | 25561 ft | 406 kts | 150° |
| 2026-05-05 12:57 | 50.78409 | 7.91589 | 25921 ft | 408 kts | 151° |
| 2026-05-05 12:57 | 50.75985 | 7.93961 | 26273 ft | 409 kts | 151° |
| 2026-05-05 12:57 | 50.73562 | 7.96328 | 26627 ft | 411 kts | 151° |
| 2026-05-05 12:57 | 50.71115 | 7.98714 | 26975 ft | 413 kts | 151° |
| 2026-05-05 12:58 | 50.68668 | 8.01097 | 27322 ft | 414 kts | 151° |
| 2026-05-05 12:58 | 50.66208 | 8.03489 | 27674 ft | 416 kts | 152° |
| 2026-05-05 12:58 | 50.63743 | 8.05883 | 28024 ft | 417 kts | 152° |
| 2026-05-05 12:58 | 50.61269 | 8.08287 | 28358 ft | 419 kts | 151° |
| 2026-05-05 12:59 | 50.58906 | 8.11020 | 28693 ft | 424 kts | 144° |
| 2026-05-05 12:59 | 50.56641 | 8.14020 | 29024 ft | 426 kts | 144° |
| 2026-05-05 12:59 | 50.54373 | 8.17014 | 29336 ft | 427 kts | 144° |
| 2026-05-05 13:00 | 50.49787 | 8.23024 | 29923 ft | 430 kts | 144° |
| 2026-05-05 13:00 | 50.47517 | 8.25986 | 30164 ft | 431 kts | 144° |
| 2026-05-05 13:01 | 50.40572 | 8.35044 | 31027 ft | 432 kts | 145° |
| 2026-05-05 13:01 | 50.38272 | 8.38044 | 31417 ft | 430 kts | 145° |
| 2026-05-05 13:01 | 50.35974 | 8.41033 | 31762 ft | 428 kts | 145° |
| 2026-05-05 13:01 | 50.33685 | 8.44002 | 32124 ft | 426 kts | 145° |
| 2026-05-05 13:02 | 50.31403 | 8.46951 | 32499 ft | 425 kts | 146° |
| 2026-05-05 13:02 | 50.29127 | 8.49890 | 32832 ft | 424 kts | 146° |
| 2026-05-05 13:02 | 50.26859 | 8.52821 | 33178 ft | 422 kts | 146° |
| 2026-05-05 13:02 | 50.24599 | 8.55741 | 33524 ft | 421 kts | 146° |
| 2026-05-05 13:03 | 50.22351 | 8.58640 | 33868 ft | 419 kts | 146° |
| 2026-05-05 13:03 | 50.20099 | 8.61542 | 34164 ft | 418 kts | 146° |
| 2026-05-05 13:03 | 50.17858 | 8.64419 | 34408 ft | 418 kts | 146° |
| 2026-05-05 13:03 | 50.15641 | 8.67260 | 34636 ft | 418 kts | 146° |
| 2026-05-05 13:04 | 50.13366 | 8.70172 | 34862 ft | 418 kts | 146° |
| 2026-05-05 13:04 | 50.11122 | 8.73042 | 35079 ft | 418 kts | 146° |
| 2026-05-05 13:04 | 50.08878 | 8.75911 | 35282 ft | 418 kts | 146° |
| 2026-05-05 13:04 | 50.07081 | 8.78463 | 35438 ft | 423 kts | 138° |
| 2026-05-05 13:05 | 50.05544 | 8.81347 | 35597 ft | 428 kts | 130° |
| 2026-05-05 13:05 | 50.04007 | 8.85355 | 35779 ft | 435 kts | 121° |
| 2026-05-05 13:05 | 50.02695 | 8.89606 | 35964 ft | 436 kts | 121° |
| 2026-05-05 13:05 | 50.01396 | 8.93795 | 36156 ft | 436 kts | 121° |
| 2026-05-05 13:06 | 50.00058 | 8.98093 | 36340 ft | 436 kts | 121° |
| 2026-05-05 13:06 | 49.98748 | 9.02288 | 36520 ft | 436 kts | 121° |
| 2026-05-05 13:06 | 49.97425 | 9.06520 | 36703 ft | 436 kts | 121° |
| 2026-05-05 13:06 | 49.96099 | 9.10746 | 36818 ft | 436 kts | 121° |
| 2026-05-05 13:07 | 49.93440 | 9.19207 | 36833 ft | 435 kts | 121° |
| 2026-05-05 13:07 | 49.90787 | 9.27649 | 36832 ft | 434 kts | 121° |
| 2026-05-05 13:08 | 49.88131 | 9.36062 | 36836 ft | 434 kts | 121° |
| 2026-05-05 13:08 | 49.85460 | 9.44468 | 36832 ft | 434 kts | 121° |
| 2026-05-05 13:09 | 49.82650 | 9.52724 | 36829 ft | 429 kts | 129° |
| 2026-05-05 13:09 | 49.78714 | 9.59492 | 36821 ft | 421 kts | 141° |
| 2026-05-05 13:10 | 49.74464 | 9.65636 | 36814 ft | 421 kts | 141° |
| 2026-05-05 13:10 | 49.70191 | 9.71839 | 36808 ft | 421 kts | 141° |
| 2026-05-05 13:11 | 49.65908 | 9.78029 | 36811 ft | 421 kts | 141° |
| 2026-05-05 13:11 | 49.61626 | 9.84200 | 36811 ft | 421 kts | 141° |
| 2026-05-05 13:12 | 49.57337 | 9.90377 | 36817 ft | 421 kts | 141° |
| 2026-05-05 13:12 | 49.53044 | 9.96537 | 36819 ft | 421 kts | 141° |
| 2026-05-05 13:13 | 49.48767 | 10.02641 | 36825 ft | 422 kts | 141° |
| 2026-05-05 13:13 | 49.44471 | 10.08768 | 36819 ft | 422 kts | 141° |
| 2026-05-05 13:14 | 49.40156 | 10.14906 | 36823 ft | 422 kts | 141° |
| 2026-05-05 13:14 | 49.35852 | 10.21017 | 36795 ft | 422 kts | 141° |
| 2026-05-05 13:15 | 49.31529 | 10.27140 | 36799 ft | 422 kts | 141° |
| 2026-05-05 13:15 | 49.27203 | 10.33242 | 36822 ft | 422 kts | 141° |
| 2026-05-05 13:16 | 49.22903 | 10.39305 | 36824 ft | 423 kts | 141° |
| 2026-05-05 13:16 | 49.18648 | 10.45543 | 36831 ft | 424 kts | 140° |
| 2026-05-05 13:17 | 49.14438 | 10.51888 | 36828 ft | 425 kts | 140° |
| 2026-05-05 13:17 | 49.10926 | 10.57148 | 36830 ft | 425 kts | 140° |
| 2026-05-05 13:18 | 49.06685 | 10.63442 | 36830 ft | 425 kts | 140° |
| 2026-05-05 13:18 | 49.02420 | 10.69723 | 36830 ft | 426 kts | 140° |
| 2026-05-05 13:19 | 48.98175 | 10.75969 | 36831 ft | 426 kts | 140° |
| 2026-05-05 13:19 | 48.93908 | 10.82237 | 36821 ft | 426 kts | 140° |
| 2026-05-05 13:20 | 48.89629 | 10.88492 | 36817 ft | 427 kts | 140° |
| 2026-05-05 13:20 | 48.85345 | 10.94742 | 36814 ft | 427 kts | 140° |
| 2026-05-05 13:21 | 48.81057 | 11.00984 | 36811 ft | 427 kts | 140° |
| 2026-05-05 13:21 | 48.76765 | 11.07223 | 36806 ft | 427 kts | 140° |
| 2026-05-05 13:22 | 48.72463 | 11.13462 | 36805 ft | 428 kts | 140° |
| 2026-05-05 13:22 | 48.68184 | 11.19653 | 36807 ft | 428 kts | 140° |
| 2026-05-05 13:23 | 48.63878 | 11.25884 | 36804 ft | 429 kts | 139° |
| 2026-05-05 13:23 | 48.59772 | 11.32466 | 36799 ft | 431 kts | 136° |
| 2026-05-05 13:24 | 48.55808 | 11.39283 | 36796 ft | 431 kts | 135° |
| 2026-05-05 13:24 | 48.51811 | 11.46059 | 36796 ft | 431 kts | 136° |
| 2026-05-05 13:25 | 48.47793 | 11.52709 | 36788 ft | 432 kts | 136° |
| 2026-05-05 13:25 | 48.43726 | 11.59382 | 36793 ft | 432 kts | 136° |
| 2026-05-05 13:26 | 48.39661 | 11.66062 | 36797 ft | 433 kts | 136° |
| 2026-05-05 13:26 | 48.35588 | 11.72750 | 36792 ft | 433 kts | 136° |
| 2026-05-05 13:27 | 48.31515 | 11.79428 | 36794 ft | 434 kts | 136° |
| 2026-05-05 13:27 | 48.27434 | 11.86093 | 36791 ft | 434 kts | 136° |
| 2026-05-05 13:28 | 48.23334 | 11.92772 | 36784 ft | 435 kts | 136° |
| 2026-05-05 13:28 | 48.19230 | 11.99445 | 36780 ft | 435 kts | 136° |
| 2026-05-05 13:29 | 48.15118 | 12.06109 | 36770 ft | 435 kts | 136° |
| 2026-05-05 13:29 | 48.10998 | 12.12760 | 36764 ft | 436 kts | 137° |
| 2026-05-05 13:30 | 48.06891 | 12.19365 | 36761 ft | 437 kts | 137° |
| 2026-05-05 13:30 | 48.02750 | 12.26029 | 36767 ft | 437 kts | 136° |
| 2026-05-05 13:31 | 47.98613 | 12.32690 | 36765 ft | 438 kts | 137° |
| 2026-05-05 13:31 | 47.94455 | 12.39341 | 36760 ft | 438 kts | 137° |
| 2026-05-05 13:32 | 47.90282 | 12.45985 | 36765 ft | 439 kts | 137° |
| 2026-05-05 13:32 | 47.86263 | 12.52373 | 36768 ft | 439 kts | 137° |
| 2026-05-05 13:33 | 47.82471 | 12.58407 | 36764 ft | 439 kts | 137° |
| 2026-05-05 13:33 | 47.78292 | 12.65048 | 36770 ft | 440 kts | 137° |
| 2026-05-05 13:34 | 47.74127 | 12.71623 | 36763 ft | 440 kts | 137° |
| 2026-05-05 13:34 | 47.69928 | 12.78228 | 36765 ft | 440 kts | 137° |
| 2026-05-05 13:35 | 47.65691 | 12.84786 | 36772 ft | 440 kts | 138° |
| 2026-05-05 13:35 | 47.61349 | 12.91178 | 36774 ft | 440 kts | 139° |
| 2026-05-05 13:36 | 47.56981 | 12.97527 | 36774 ft | 440 kts | 139° |
| 2026-05-05 13:36 | 47.52627 | 13.03917 | 36780 ft | 440 kts | 139° |
| 2026-05-05 13:37 | 47.48281 | 13.10318 | 36784 ft | 441 kts | 139° |
| 2026-05-05 13:37 | 47.43946 | 13.16678 | 36798 ft | 442 kts | 138° |
| 2026-05-05 13:38 | 47.39576 | 13.23069 | 36805 ft | 442 kts | 139° |
| 2026-05-05 13:38 | 47.35207 | 13.29450 | 36814 ft | 442 kts | 139° |
| 2026-05-05 13:39 | 47.30998 | 13.36093 | 36829 ft | 445 kts | 133° |
| 2026-05-05 13:39 | 47.27010 | 13.43079 | 36841 ft | 445 kts | 133° |
| 2026-05-05 13:40 | 47.23041 | 13.49999 | 36850 ft | 445 kts | 134° |
| 2026-05-05 13:40 | 47.19036 | 13.56970 | 36853 ft | 445 kts | 134° |
| 2026-05-05 13:41 | 47.15025 | 13.63927 | 36877 ft | 446 kts | 134° |
| 2026-05-05 13:41 | 47.11000 | 13.70878 | 36883 ft | 447 kts | 134° |
| 2026-05-05 13:42 | 47.06999 | 13.77785 | 36891 ft | 447 kts | 134° |
| 2026-05-05 13:42 | 47.02970 | 13.84722 | 36900 ft | 447 kts | 134° |
| 2026-05-05 13:43 | 46.98932 | 13.91645 | 36906 ft | 447 kts | 134° |
| 2026-05-05 13:43 | 46.94892 | 13.98567 | 36902 ft | 447 kts | 134° |
| 2026-05-05 13:44 | 46.91062 | 14.05108 | 36901 ft | 447 kts | 134° |
| 2026-05-05 13:44 | 46.87010 | 14.12013 | 36913 ft | 447 kts | 134° |
| 2026-05-05 13:45 | 46.83429 | 14.18119 | 36929 ft | 447 kts | 134° |
| 2026-05-05 13:45 | 46.79362 | 14.25012 | 36947 ft | 447 kts | 134° |
| 2026-05-05 13:46 | 46.75312 | 14.31837 | 36955 ft | 448 kts | 134° |
| 2026-05-05 13:46 | 46.71246 | 14.38702 | 36957 ft | 448 kts | 134° |
| 2026-05-05 13:47 | 46.67175 | 14.45579 | 36959 ft | 448 kts | 134° |
| 2026-05-05 13:47 | 46.63157 | 14.52333 | 36952 ft | 448 kts | 134° |
| 2026-05-05 13:48 | 46.58969 | 14.59044 | 36945 ft | 448 kts | 136° |
| 2026-05-05 13:48 | 46.54628 | 14.65533 | 36936 ft | 447 kts | 137° |
| 2026-05-05 13:49 | 46.50273 | 14.71985 | 36931 ft | 448 kts | 137° |
| 2026-05-05 13:49 | 46.45947 | 14.78499 | 36943 ft | 448 kts | 137° |
| 2026-05-05 13:50 | 46.41643 | 14.85035 | 36937 ft | 448 kts | 136° |
| 2026-05-05 13:50 | 46.40244 | 14.87157 | 36942 ft | 448 kts | 137° |
| 2026-05-05 13:51 | 46.36641 | 14.91793 | 36934 ft | 446 kts | 140° |
| 2026-05-05 13:51 | 46.32384 | 14.98312 | 36929 ft | 449 kts | 134° |
| 2026-05-05 13:52 | 46.28249 | 15.05099 | 36934 ft | 450 kts | 135° |
| 2026-05-05 13:52 | 46.23964 | 15.11694 | 36940 ft | 450 kts | 137° |
| 2026-05-05 13:53 | 46.19584 | 15.18135 | 36943 ft | 450 kts | 137° |
| 2026-05-05 13:53 | 46.15198 | 15.24579 | 36954 ft | 450 kts | 137° |
| 2026-05-05 13:54 | 46.10832 | 15.31046 | 36968 ft | 450 kts | 137° |
| 2026-05-05 13:54 | 46.06518 | 15.37582 | 36975 ft | 450 kts | 135° |
| 2026-05-05 13:55 | 46.02255 | 15.44210 | 36983 ft | 451 kts | 135° |
| 2026-05-05 13:55 | 45.98020 | 15.50779 | 36992 ft | 451 kts | 135° |
| 2026-05-05 13:56 | 45.93732 | 15.57353 | 36990 ft | 451 kts | 136° |
| 2026-05-05 13:56 | 45.89436 | 15.63906 | 36990 ft | 450 kts | 136° |
| 2026-05-05 13:57 | 45.85131 | 15.70462 | 36987 ft | 451 kts | 136° |
| 2026-05-05 13:57 | 45.80821 | 15.77001 | 36981 ft | 451 kts | 136° |
| 2026-05-05 13:58 | 45.76507 | 15.83538 | 36989 ft | 452 kts | 136° |
| 2026-05-05 13:58 | 45.72192 | 15.90066 | 36990 ft | 451 kts | 136° |
| 2026-05-05 13:59 | 45.65748 | 15.99793 | 36992 ft | 451 kts | 136° |
| 2026-05-05 14:00 | 45.59964 | 16.08482 | 36987 ft | 451 kts | 136° |
| 2026-05-05 14:00 | 45.54932 | 16.16027 | 36989 ft | 451 kts | 136° |
| 2026-05-05 14:01 | 45.50600 | 16.22495 | 36986 ft | 451 kts | 136° |
| 2026-05-05 14:01 | 45.46258 | 16.28968 | 36982 ft | 451 kts | 136° |
| 2026-05-05 14:02 | 45.41917 | 16.35420 | 36981 ft | 451 kts | 136° |
| 2026-05-05 14:02 | 45.37569 | 16.41875 | 36983 ft | 451 kts | 136° |
| 2026-05-05 14:03 | 45.33245 | 16.48277 | 36984 ft | 451 kts | 136° |
| 2026-05-05 14:03 | 45.28886 | 16.54712 | 36973 ft | 451 kts | 136° |
| 2026-05-05 14:04 | 45.24525 | 16.61144 | 36975 ft | 452 kts | 136° |
| 2026-05-05 14:04 | 45.20156 | 16.67574 | 36959 ft | 452 kts | 136° |
| 2026-05-05 14:05 | 45.16516 | 16.72891 | 36971 ft | 452 kts | 137° |
| 2026-05-05 14:05 | 45.12105 | 16.79253 | 36967 ft | 452 kts | 137° |
| 2026-05-05 14:06 | 45.09067 | 16.83560 | 36972 ft | 452 kts | 137° |
| 2026-05-05 14:06 | 45.04655 | 16.89901 | 36962 ft | 453 kts | 137° |
| 2026-05-05 14:07 | 45.00255 | 16.96279 | 36961 ft | 453 kts | 137° |
| 2026-05-05 14:07 | 44.95838 | 17.02637 | 36965 ft | 453 kts | 137° |
| 2026-05-05 14:08 | 44.91438 | 17.08931 | 36966 ft | 453 kts | 137° |
| 2026-05-05 14:08 | 44.87004 | 17.15257 | 36966 ft | 453 kts | 137° |
| 2026-05-05 14:09 | 44.82564 | 17.21565 | 36969 ft | 453 kts | 137° |
| 2026-05-05 14:09 | 44.78116 | 17.27889 | 36968 ft | 454 kts | 137° |
| 2026-05-05 14:10 | 44.73669 | 17.34188 | 36970 ft | 454 kts | 137° |
| 2026-05-05 14:10 | 44.69215 | 17.40480 | 36969 ft | 454 kts | 137° |
| 2026-05-05 14:11 | 44.64750 | 17.46781 | 36973 ft | 455 kts | 137° |
| 2026-05-05 14:11 | 44.60282 | 17.53076 | 36978 ft | 455 kts | 137° |
| 2026-05-05 14:12 | 44.55828 | 17.59338 | 36977 ft | 455 kts | 137° |
| 2026-05-05 14:12 | 44.51347 | 17.65613 | 36982 ft | 456 kts | 137° |
| 2026-05-05 14:13 | 44.46851 | 17.71896 | 36980 ft | 457 kts | 137° |
| 2026-05-05 14:13 | 44.42345 | 17.78174 | 36986 ft | 457 kts | 137° |
| 2026-05-05 14:14 | 44.37836 | 17.84455 | 36983 ft | 457 kts | 137° |
| 2026-05-05 14:14 | 44.33316 | 17.90723 | 36980 ft | 458 kts | 137° |
| 2026-05-05 14:15 | 44.28794 | 17.96997 | 36983 ft | 458 kts | 137° |
| 2026-05-05 14:15 | 44.24255 | 18.03264 | 36985 ft | 459 kts | 137° |
| 2026-05-05 14:16 | 44.19713 | 18.09521 | 36985 ft | 460 kts | 137° |
| 2026-05-05 14:16 | 44.15164 | 18.15778 | 36991 ft | 460 kts | 137° |
| 2026-05-05 14:17 | 44.10598 | 18.22048 | 36993 ft | 461 kts | 137° |
| 2026-05-05 14:17 | 44.06054 | 18.28267 | 37005 ft | 461 kts | 137° |
| 2026-05-05 14:18 | 44.01473 | 18.34531 | 37008 ft | 462 kts | 137° |
| 2026-05-05 14:18 | 43.96872 | 18.40792 | 37014 ft | 462 kts | 137° |
| 2026-05-05 14:19 | 43.92279 | 18.47048 | 37020 ft | 463 kts | 137° |
| 2026-05-05 14:19 | 43.87671 | 18.53303 | 37020 ft | 463 kts | 138° |
| 2026-05-05 14:20 | 43.83059 | 18.59532 | 37018 ft | 463 kts | 138° |
| 2026-05-05 14:20 | 43.78469 | 18.65729 | 37015 ft | 464 kts | 138° |
| 2026-05-05 14:21 | 43.73845 | 18.71966 | 37015 ft | 464 kts | 138° |
| 2026-05-05 14:21 | 43.69208 | 18.78186 | 37014 ft | 464 kts | 138° |
| 2026-05-05 14:22 | 43.64572 | 18.84410 | 37014 ft | 465 kts | 138° |
| 2026-05-05 14:22 | 43.59921 | 18.90634 | 37014 ft | 465 kts | 138° |
| 2026-05-05 14:23 | 43.55270 | 18.96842 | 37015 ft | 466 kts | 138° |
| 2026-05-05 14:23 | 43.50607 | 19.03057 | 37019 ft | 466 kts | 138° |
| 2026-05-05 14:24 | 43.45940 | 19.09257 | 37018 ft | 466 kts | 138° |
| 2026-05-05 14:24 | 43.41263 | 19.15460 | 37017 ft | 467 kts | 138° |
| 2026-05-05 14:25 | 43.36619 | 19.21618 | 37020 ft | 467 kts | 138° |
| 2026-05-05 14:25 | 43.31926 | 19.27806 | 37023 ft | 467 kts | 138° |
| 2026-05-05 14:26 | 43.27226 | 19.33995 | 37025 ft | 468 kts | 138° |
| 2026-05-05 14:26 | 43.22526 | 19.40172 | 37027 ft | 468 kts | 138° |
| 2026-05-05 14:27 | 43.17821 | 19.46344 | 37028 ft | 469 kts | 138° |
| 2026-05-05 14:27 | 43.13118 | 19.52508 | 37032 ft | 469 kts | 138° |
| 2026-05-05 14:28 | 43.08396 | 19.58665 | 37030 ft | 469 kts | 138° |
| 2026-05-05 14:28 | 43.03666 | 19.64821 | 37028 ft | 469 kts | 138° |
| 2026-05-05 14:29 | 42.98963 | 19.70936 | 37028 ft | 470 kts | 138° |
| 2026-05-05 14:29 | 42.94223 | 19.77099 | 37031 ft | 470 kts | 138° |
| 2026-05-05 14:30 | 42.89467 | 19.83238 | 37034 ft | 471 kts | 139° |
| 2026-05-05 14:30 | 42.84705 | 19.89375 | 37037 ft | 471 kts | 138° |
| 2026-05-05 14:31 | 42.79933 | 19.95519 | 37040 ft | 472 kts | 138° |
| 2026-05-05 14:31 | 42.75164 | 20.01677 | 37033 ft | 473 kts | 135° |
| 2026-05-05 14:32 | 42.70918 | 20.08522 | 37028 ft | 474 kts | 130° |
| 2026-05-05 14:32 | 42.66720 | 20.15462 | 37019 ft | 475 kts | 130° |
| 2026-05-05 14:33 | 42.62518 | 20.22377 | 37022 ft | 475 kts | 130° |
| 2026-05-05 14:33 | 42.58305 | 20.29291 | 37018 ft | 476 kts | 130° |
| 2026-05-05 14:34 | 42.54105 | 20.36174 | 37018 ft | 476 kts | 130° |
| 2026-05-05 14:34 | 42.49874 | 20.43101 | 37020 ft | 477 kts | 130° |
| 2026-05-05 14:35 | 42.45641 | 20.50025 | 37020 ft | 477 kts | 130° |
| 2026-05-05 14:35 | 42.41394 | 20.56933 | 37019 ft | 478 kts | 130° |
| 2026-05-05 14:36 | 42.37134 | 20.63846 | 37019 ft | 478 kts | 130° |
| 2026-05-05 14:36 | 42.32874 | 20.70756 | 37024 ft | 479 kts | 130° |
| 2026-05-05 14:37 | 42.28602 | 20.77658 | 37025 ft | 479 kts | 130° |
| 2026-05-05 14:37 | 42.24315 | 20.84563 | 37029 ft | 479 kts | 130° |
| 2026-05-05 14:38 | 42.20038 | 20.91458 | 37025 ft | 480 kts | 130° |
| 2026-05-05 14:38 | 42.15776 | 20.98307 | 37025 ft | 480 kts | 130° |
| 2026-05-05 14:39 | 42.11445 | 21.05189 | 37006 ft | 479 kts | 133° |
| 2026-05-05 14:39 | 42.06640 | 21.11402 | 37017 ft | 480 kts | 137° |
| 2026-05-05 14:40 | 42.01771 | 21.17577 | 37008 ft | 481 kts | 137° |
| 2026-05-05 14:40 | 41.96905 | 21.23757 | 37002 ft | 481 kts | 137° |
| 2026-05-05 14:41 | 41.92031 | 21.29926 | 36990 ft | 481 kts | 137° |
| 2026-05-05 14:41 | 41.87178 | 21.36048 | 36990 ft | 482 kts | 137° |
| 2026-05-05 14:42 | 41.82280 | 21.42212 | 36988 ft | 483 kts | 137° |
| 2026-05-05 14:42 | 41.77380 | 21.48365 | 36991 ft | 484 kts | 137° |
| 2026-05-05 14:43 | 41.72460 | 21.54538 | 36992 ft | 484 kts | 137° |
| 2026-05-05 14:43 | 41.67537 | 21.60704 | 36999 ft | 484 kts | 137° |
| 2026-05-05 14:44 | 41.62604 | 21.66857 | 37003 ft | 485 kts | 137° |
| 2026-05-05 14:44 | 41.57662 | 21.72992 | 37010 ft | 485 kts | 137° |
| 2026-05-05 14:45 | 41.52750 | 21.79094 | 37005 ft | 485 kts | 137° |
| 2026-05-05 14:45 | 41.47978 | 21.85020 | 37004 ft | 485 kts | 137° |
| 2026-05-05 14:46 | 41.43867 | 21.90108 | 37004 ft | 485 kts | 137° |
| 2026-05-05 14:46 | 41.38077 | 21.97245 | 37005 ft | 485 kts | 137° |
| 2026-05-05 14:47 | 41.33115 | 22.03356 | 37004 ft | 485 kts | 137° |
| 2026-05-05 14:47 | 41.28166 | 22.09454 | 37003 ft | 485 kts | 137° |
| 2026-05-05 14:48 | 41.24039 | 22.14521 | 36999 ft | 485 kts | 137° |
| 2026-05-05 14:48 | 41.18259 | 22.21577 | 36998 ft | 486 kts | 137° |
| 2026-05-05 14:49 | 41.13207 | 22.27527 | 36987 ft | 485 kts | 140° |
| 2026-05-05 14:49 | 41.07955 | 22.33140 | 36991 ft | 485 kts | 142° |
| 2026-05-05 14:50 | 41.02635 | 22.38674 | 36986 ft | 485 kts | 142° |
| 2026-05-05 14:50 | 40.97366 | 22.44266 | 36977 ft | 486 kts | 141° |
| 2026-05-05 14:51 | 40.92151 | 22.49868 | 36977 ft | 486 kts | 141° |
| 2026-05-05 14:51 | 40.86898 | 22.55507 | 36974 ft | 486 kts | 141° |
| 2026-05-05 14:52 | 40.81637 | 22.61120 | 36974 ft | 486 kts | 141° |
| 2026-05-05 14:52 | 40.77408 | 22.65615 | 36971 ft | 487 kts | 141° |
| 2026-05-05 14:53 | 40.72129 | 22.71210 | 36976 ft | 487 kts | 141° |
| 2026-05-05 14:53 | 40.66843 | 22.76806 | 36984 ft | 487 kts | 141° |
| 2026-05-05 14:54 | 40.61561 | 22.82385 | 36991 ft | 487 kts | 141° |
| 2026-05-05 14:54 | 40.57171 | 22.87017 | 36993 ft | 487 kts | 141° |
| 2026-05-05 14:55 | 40.52217 | 22.92234 | 36995 ft | 487 kts | 141° |
| 2026-05-05 14:55 | 40.46920 | 22.97789 | 36998 ft | 487 kts | 141° |
| 2026-05-05 14:56 | 40.42145 | 23.03993 | 36994 ft | 486 kts | 132° |
| 2026-05-05 14:56 | 40.37494 | 23.10434 | 36997 ft | 487 kts | 132° |
| 2026-05-05 14:57 | 40.32824 | 23.16878 | 37000 ft | 487 kts | 133° |
| 2026-05-05 14:57 | 40.28157 | 23.23306 | 37003 ft | 487 kts | 133° |
| 2026-05-05 14:58 | 40.23482 | 23.29733 | 37011 ft | 487 kts | 133° |
| 2026-05-05 14:58 | 40.18832 | 23.36111 | 37009 ft | 487 kts | 133° |
| 2026-05-05 14:59 | 40.14141 | 23.42533 | 37014 ft | 488 kts | 133° |
| 2026-05-05 14:59 | 40.09446 | 23.48942 | 37018 ft | 488 kts | 133° |
| 2026-05-05 15:00 | 40.05658 | 23.54099 | 37021 ft | 488 kts | 133° |
| 2026-05-05 15:00 | 40.00159 | 23.61578 | 37029 ft | 488 kts | 133° |
| 2026-05-05 15:01 | 39.95455 | 23.67965 | 37034 ft | 488 kts | 133° |
| 2026-05-05 15:01 | 39.90741 | 23.74349 | 37038 ft | 488 kts | 133° |
| 2026-05-05 15:02 | 39.86023 | 23.80712 | 37039 ft | 489 kts | 133° |
| 2026-05-05 15:02 | 39.81328 | 23.87045 | 37041 ft | 489 kts | 133° |
| 2026-05-05 15:03 | 39.76603 | 23.93404 | 37045 ft | 489 kts | 133° |
| 2026-05-05 15:03 | 39.71871 | 23.99767 | 37044 ft | 489 kts | 133° |
| 2026-05-05 15:04 | 39.67140 | 24.06111 | 37043 ft | 489 kts | 133° |
| 2026-05-05 15:04 | 39.62390 | 24.12450 | 37039 ft | 489 kts | 133° |
| 2026-05-05 15:05 | 39.55263 | 24.21953 | 37042 ft | 490 kts | 133° |
| 2026-05-05 15:06 | 39.50511 | 24.28280 | 37052 ft | 490 kts | 133° |
| 2026-05-05 15:06 | 39.45744 | 24.34611 | 37054 ft | 490 kts | 133° |
| 2026-05-05 15:07 | 39.40976 | 24.40923 | 37056 ft | 490 kts | 133° |
| 2026-05-05 15:07 | 39.36345 | 24.47043 | 37056 ft | 490 kts | 133° |
| 2026-05-05 15:08 | 39.31612 | 24.53298 | 37057 ft | 490 kts | 133° |
| 2026-05-05 15:08 | 39.26878 | 24.59630 | 37058 ft | 490 kts | 133° |
| 2026-05-05 15:09 | 39.22151 | 24.65967 | 37058 ft | 490 kts | 133° |
| 2026-05-05 15:09 | 39.17407 | 24.72304 | 37060 ft | 490 kts | 133° |
| 2026-05-05 15:10 | 39.12653 | 24.78615 | 37065 ft | 490 kts | 133° |
| 2026-05-05 15:10 | 39.07882 | 24.84904 | 37068 ft | 491 kts | 134° |
| 2026-05-05 15:11 | 39.03103 | 24.91103 | 37069 ft | 491 kts | 134° |
| 2026-05-05 15:11 | 38.98283 | 24.97328 | 37070 ft | 491 kts | 134° |
| 2026-05-05 15:12 | 38.93463 | 25.03542 | 37073 ft | 491 kts | 134° |
| 2026-05-05 15:12 | 38.88640 | 25.09762 | 36728 ft | 492 kts | 134° |
| 2026-05-05 15:12 | 38.86229 | 25.12868 | 36346 ft | 491 kts | 134° |
| 2026-05-05 15:13 | 38.83819 | 25.15972 | 35966 ft | 491 kts | 134° |
| 2026-05-05 15:13 | 38.81406 | 25.19075 | 35602 ft | 490 kts | 134° |
| 2026-05-05 15:13 | 38.79000 | 25.22166 | 35224 ft | 488 kts | 134° |
| 2026-05-05 15:13 | 38.76605 | 25.25243 | 34860 ft | 486 kts | 134° |
| 2026-05-05 15:14 | 38.74223 | 25.28302 | 34501 ft | 483 kts | 134° |
| 2026-05-05 15:14 | 38.71882 | 25.31304 | 34150 ft | 481 kts | 134° |
| 2026-05-05 15:14 | 38.69491 | 25.34366 | 33750 ft | 478 kts | 134° |
| 2026-05-05 15:14 | 38.67174 | 25.37327 | 33352 ft | 476 kts | 134° |
| 2026-05-05 15:15 | 38.64953 | 25.40163 | 32971 ft | 473 kts | 134° |
| 2026-05-05 15:15 | 38.62623 | 25.43130 | 32380 ft | 472 kts | 134° |
| 2026-05-05 15:15 | 38.60295 | 25.46088 | 31793 ft | 471 kts | 134° |
| 2026-05-05 15:15 | 38.57971 | 25.49043 | 31213 ft | 470 kts | 134° |
| 2026-05-05 15:16 | 38.55677 | 25.51962 | 30960 ft | 461 kts | 134° |
| 2026-05-05 15:16 | 38.53419 | 25.54831 | 30581 ft | 455 kts | 134° |
| 2026-05-05 15:16 | 38.51180 | 25.57673 | 30155 ft | 452 kts | 134° |
| 2026-05-05 15:16 | 38.48961 | 25.60486 | 29661 ft | 448 kts | 134° |
| 2026-05-05 15:17 | 38.46760 | 25.63274 | 29167 ft | 444 kts | 134° |
| 2026-05-05 15:17 | 38.44573 | 25.66039 | 28696 ft | 440 kts | 134° |
| 2026-05-05 15:17 | 38.42404 | 25.68776 | 28236 ft | 436 kts | 134° |
| 2026-05-05 15:17 | 38.40254 | 25.71488 | 27780 ft | 432 kts | 134° |
| 2026-05-05 15:18 | 38.38128 | 25.74175 | 27334 ft | 429 kts | 134° |
| 2026-05-05 15:18 | 38.36021 | 25.76836 | 26886 ft | 425 kts | 133° |
| 2026-05-05 15:18 | 38.33931 | 25.79481 | 26448 ft | 421 kts | 133° |
| 2026-05-05 15:18 | 38.31864 | 25.82104 | 26021 ft | 418 kts | 133° |
| 2026-05-05 15:19 | 38.29813 | 25.84706 | 25608 ft | 414 kts | 133° |
| 2026-05-05 15:19 | 38.27774 | 25.87284 | 25197 ft | 411 kts | 133° |
| 2026-05-05 15:19 | 38.25772 | 25.89808 | 24605 ft | 414 kts | 133° |
| 2026-05-05 15:19 | 38.23692 | 25.92351 | 24050 ft | 416 kts | 136° |
| 2026-05-05 15:20 | 38.21542 | 25.94809 | 23600 ft | 414 kts | 137° |
| 2026-05-05 15:20 | 38.19367 | 25.97191 | 23107 ft | 411 kts | 138° |
| 2026-05-05 15:20 | 38.17194 | 25.99528 | 22641 ft | 407 kts | 138° |
| 2026-05-05 15:20 | 38.15039 | 26.01848 | 22199 ft | 404 kts | 138° |
| 2026-05-05 15:21 | 38.12908 | 26.04163 | 21762 ft | 400 kts | 137° |
| 2026-05-05 15:21 | 38.10811 | 26.06465 | 21343 ft | 397 kts | 137° |
| 2026-05-05 15:21 | 38.08737 | 26.08754 | 20933 ft | 393 kts | 137° |
| 2026-05-05 15:21 | 38.06681 | 26.11025 | 20529 ft | 390 kts | 137° |
| 2026-05-05 15:22 | 38.04645 | 26.13277 | 20129 ft | 387 kts | 137° |
| 2026-05-05 15:22 | 38.02627 | 26.15512 | 19738 ft | 384 kts | 137° |
| 2026-05-05 15:22 | 38.00622 | 26.17729 | 19355 ft | 380 kts | 137° |
| 2026-05-05 15:22 | 37.98634 | 26.19922 | 18969 ft | 378 kts | 137° |
| 2026-05-05 15:23 | 37.96658 | 26.22096 | 18598 ft | 375 kts | 137° |
| 2026-05-05 15:23 | 37.94696 | 26.24251 | 18194 ft | 372 kts | 137° |
| 2026-05-05 15:23 | 37.92745 | 26.26392 | 17765 ft | 369 kts | 137° |
| 2026-05-05 15:23 | 37.90810 | 26.28517 | 17351 ft | 367 kts | 137° |
| 2026-05-05 15:24 | 37.88891 | 26.30624 | 16949 ft | 364 kts | 137° |
| 2026-05-05 15:24 | 37.86996 | 26.32707 | 16448 ft | 365 kts | 137° |
| 2026-05-05 15:24 | 37.85074 | 26.34818 | 15939 ft | 366 kts | 137° |
| 2026-05-05 15:24 | 37.83144 | 26.36931 | 15443 ft | 367 kts | 137° |
| 2026-05-05 15:25 | 37.81204 | 26.39034 | 14939 ft | 368 kts | 137° |
| 2026-05-05 15:25 | 37.79254 | 26.41135 | 14472 ft | 368 kts | 137° |
| 2026-05-05 15:25 | 37.77296 | 26.43237 | 13991 ft | 368 kts | 137° |
| 2026-05-05 15:25 | 37.75344 | 26.45330 | 13478 ft | 368 kts | 137° |
| 2026-05-05 15:26 | 37.73398 | 26.47416 | 12950 ft | 367 kts | 137° |
| 2026-05-05 15:26 | 37.71451 | 26.49500 | 12431 ft | 366 kts | 137° |
| 2026-05-05 15:26 | 37.69508 | 26.51571 | 11918 ft | 364 kts | 137° |
| 2026-05-05 15:26 | 37.67574 | 26.53625 | 11428 ft | 362 kts | 137° |
| 2026-05-05 15:27 | 37.65648 | 26.55665 | 10953 ft | 360 kts | 137° |
| 2026-05-05 15:27 | 37.63734 | 26.57684 | 10562 ft | 355 kts | 138° |
| 2026-05-05 15:27 | 37.61859 | 26.59620 | 10459 ft | 342 kts | 139° |
| 2026-05-05 15:27 | 37.60035 | 26.61470 | 10304 ft | 331 kts | 139° |
| 2026-05-05 15:28 | 37.58260 | 26.63230 | 10262 ft | 317 kts | 140° |
| 2026-05-05 15:28 | 37.56603 | 26.64957 | 9994 ft | 312 kts | 135° |
| 2026-05-05 15:28 | 37.55073 | 26.66871 | 9624 ft | 308 kts | 129° |
| 2026-05-05 15:28 | 37.53710 | 26.68940 | 9234 ft | 303 kts | 123° |
| 2026-05-05 15:29 | 37.52563 | 26.71071 | 8744 ft | 284 kts | 116° |
| 2026-05-05 15:29 | 37.51700 | 26.73239 | 8018 ft | 273 kts | 106° |
| 2026-05-05 15:29 | 37.51196 | 26.75515 | 7129 ft | 269 kts | 94° |
| 2026-05-05 15:29 | 37.51010 | 26.77846 | 6293 ft | 264 kts | 86° |
| 2026-05-05 15:30 | 37.50966 | 26.80123 | 5571 ft | 256 kts | 86° |
| 2026-05-05 15:30 | 37.50952 | 26.82331 | 4907 ft | 246 kts | 81° |
| 2026-05-05 15:30 | 37.51395 | 26.84252 | 4707 ft | 219 kts | 52° |
| 2026-05-05 15:30 | 37.52444 | 26.85593 | 4357 ft | 215 kts | 34° |
| 2026-05-05 15:31 | 37.53649 | 26.86755 | 3896 ft | 222 kts | 33° |
| 2026-05-05 15:31 | 37.54912 | 26.87910 | 3483 ft | 225 kts | 31° |
| 2026-05-05 15:31 | 37.56277 | 26.88765 | 3175 ft | 215 kts | 17° |
| 2026-05-05 15:31 | 37.57691 | 26.89254 | 2648 ft | 208 kts | 9° |
| 2026-05-05 15:32 | 37.59106 | 26.89549 | 2305 ft | 203 kts | 6° |
| 2026-05-05 15:32 | 37.60485 | 26.89779 | 2148 ft | 197 kts | 5° |
| 2026-05-05 15:32 | 37.61849 | 26.89902 | 1938 ft | 196 kts | 0° |
| 2026-05-05 15:32 | 37.63171 | 26.89792 | 1827 ft | 183 kts | 343° |
| 2026-05-05 15:33 | 37.64192 | 26.89066 | 1731 ft | 163 kts | 319° |
| 2026-05-05 15:33 | 37.64971 | 26.88134 | 1572 ft | 146 kts | 318° |
| 2026-05-05 15:33 | 37.65753 | 26.87357 | 1314 ft | 140 kts | 322° |
| 2026-05-05 15:33 | 37.66511 | 26.86609 | 1050 ft | 137 kts | 322° |
| 2026-05-05 15:34 | 37.67375 | 26.86138 | 721 ft | 142 kts | 358° |
| 2026-05-05 15:34 | 37.68275 | 26.86551 | 795 ft | 143 kts | 25° |
| 2026-05-05 15:34 | 37.68916 | 26.87503 | 664 ft | 145 kts | 65° |
| 2026-05-05 15:34 | 37.69095 | 26.88786 | 367 ft | 154 kts | 88° |
| 2026-05-05 15:35 | 37.69020 | 26.90111 | 516 ft | 152 kts | 89° |
| 2026-05-05 15:35 | 37.68891 | 26.91526 | 1133 ft | 181 kts | 105° |
| 2026-05-05 15:35 | 37.68084 | 26.92902 | 1674 ft | 209 kts | 147° |
| 2026-05-05 15:35 | 37.66660 | 26.93445 | 2053 ft | 223 kts | 180° |
| 2026-05-05 15:36 | 37.65088 | 26.93409 | 2531 ft | 236 kts | 185° |
| 2026-05-05 15:36 | 37.63367 | 26.93252 | 2872 ft | 257 kts | 185° |
| 2026-05-05 15:36 | 37.61631 | 26.93071 | 2942 ft | 245 kts | 186° |
| 2026-05-05 15:36 | 37.59950 | 26.92904 | 3006 ft | 241 kts | 186° |
| 2026-05-05 15:37 | 37.58290 | 26.92742 | 3008 ft | 239 kts | 185° |
| 2026-05-05 15:37 | 37.56629 | 26.92571 | 3010 ft | 239 kts | 186° |
| 2026-05-05 15:37 | 37.54969 | 26.92409 | 3014 ft | 239 kts | 185° |
| 2026-05-05 15:37 | 37.53310 | 26.92249 | 3012 ft | 238 kts | 185° |
| 2026-05-05 15:38 | 37.51660 | 26.92051 | 3008 ft | 237 kts | 194° |
| 2026-05-05 15:38 | 37.50227 | 26.91128 | 3012 ft | 231 kts | 229° |
| 2026-05-05 15:38 | 37.49578 | 26.90090 | 3018 ft | 227 kts | 243° |
| 2026-05-05 15:38 | 37.49090 | 26.88251 | 3012 ft | 218 kts | 274° |
| 2026-05-05 15:39 | 37.49469 | 26.86478 | 3013 ft | 209 kts | 308° |
| 2026-05-05 15:39 | 37.50568 | 26.85369 | 3020 ft | 204 kts | 342° |
| 2026-05-05 15:39 | 37.51964 | 26.85312 | 3023 ft | 205 kts | 15° |
| 2026-05-05 15:39 | 37.53226 | 26.86093 | 2918 ft | 200 kts | 26° |
| 2026-05-05 15:40 | 37.54419 | 26.86979 | 2733 ft | 197 kts | 28° |
| 2026-05-05 15:40 | 37.55558 | 26.87862 | 2644 ft | 185 kts | 28° |
| 2026-05-05 15:40 | 37.56613 | 26.88632 | 2585 ft | 168 kts | 23° |
| 2026-05-05 15:40 | 37.57633 | 26.89188 | 2553 ft | 153 kts | 15° |
| 2026-05-05 15:41 | 37.58608 | 26.89562 | 2468 ft | 141 kts | 13° |
| 2026-05-05 15:41 | 37.59546 | 26.89861 | 2319 ft | 138 kts | 7° |
| 2026-05-05 15:41 | 37.60494 | 26.89977 | 2132 ft | 137 kts | 1° |
| 2026-05-05 15:41 | 37.61444 | 26.90038 | 1954 ft | 137 kts | 0° |
| 2026-05-05 15:42 | 37.62372 | 26.89936 | 1879 ft | 132 kts | 340° |
| 2026-05-05 15:42 | 37.63179 | 26.89366 | 1782 ft | 134 kts | 326° |
| 2026-05-05 15:42 | 37.63969 | 26.88735 | 1556 ft | 136 kts | 327° |
| 2026-05-05 15:42 | 37.64784 | 26.88121 | 1278 ft | 136 kts | 328° |
| 2026-05-05 15:43 | 37.65607 | 26.87530 | 1076 ft | 136 kts | 328° |
| 2026-05-05 15:43 | 37.66426 | 26.86937 | 947 ft | 133 kts | 330° |
| 2026-05-05 15:43 | 37.67288 | 26.86495 | 809 ft | 136 kts | 351° |
| 2026-05-05 15:43 | 37.68213 | 26.86772 | 686 ft | 141 kts | 29° |
| 2026-05-05 15:44 | 37.68858 | 26.87700 | 555 ft | 146 kts | 57° |
| 2026-05-05 15:44 | 37.69063 | 26.88977 | 265 ft | 153 kts | 86° |
| 2026-05-05 15:44 | 37.68973 | 26.90301 | 49 ft | 147 kts | 91° |
| 2026-05-05 15:44 | 37.68908 | 26.91438 | 20 ft | 98 kts | 96° |
| 2026-05-05 15:45 | 37.68873 | 26.91923 | 19 ft | 19 kts | 94° |
| 2026-05-05 15:45 | 37.68861 | 26.92045 | 23 ft | 12 kts | 109° |
| 2026-05-05 15:45 | 37.68854 | 26.92102 | 23 ft | 3 kts | 43° |
| 2026-05-05 15:45 | 37.68865 | 26.92095 | 25 ft | 2 kts | 309° |
| 2026-05-05 15:46 | 37.68868 | 26.92029 | 22 ft | 13 kts | 273° |
| 2026-05-05 15:46 | 37.68876 | 26.91894 | 19 ft | 20 kts | 274° |
| 2026-05-05 15:46 | 37.68887 | 26.91735 | 20 ft | 12 kts | 281° |
| 2026-05-05 15:46 | 37.68931 | 26.91692 | 22 ft | 7 kts | 347° |
| 2026-05-05 15:47 | 37.68976 | 26.91660 | 22 ft | 8 kts | 297° |
| 2026-05-05 15:47 | 37.68990 | 26.91578 | 22 ft | 11 kts | 280° |
| 2026-05-05 15:47 | 37.69005 | 26.91480 | 22 ft | 11 kts | 271° |
| 2026-05-05 15:47 | 37.68998 | 26.91403 | 22 ft | 3 kts | 299° |
| 2026-05-05 15:48 | 37.69016 | 26.91404 | 24 ft | 1 kts | 12° |
| 2026-05-05 15:48 | 37.69036 | 26.91408 | 23 ft | 3 kts | 5° |
| 2026-05-05 15:48 | 37.69044 | 26.91408 | 24 ft | 1 kts | 4° |
| 2026-05-05 15:48 | 37.69051 | 26.91409 | 24 ft | 0 kts | 4° |
| 2026-05-05 15:49 | 37.69054 | 26.91409 | 24 ft | 0 kts | 4° |